Time;durP1;ratioP1;P1;durP2;ratioP2;P2;SDS_P1;SDS_P2;PMS_P1;PMS_P2;Temp;Humidity;BMP_temperature;BMP_pressure;BME280_temperature;BME280_humidity;BME280_pressure;Samples;Min_cycle;Max_cycle;Signal;HPM_P1;HPM_P2
2023/09/19 00:01:45;;;;;;;15.50;4.15;;;;;;;13.99;100.00;100621.50;5394219;27;20038;-86
2023/09/19 00:04:19;;;;;;;15.00;3.83;;;;;;;13.91;100.00;100614.75;5391405;27;20038;-92
2023/09/19 00:06:50;;;;;;;16.25;4.63;;;;;;;13.90;100.00;100628.75;5374597;27;20030;-90
2023/09/19 00:09:21;;;;;;;14.67;4.07;;;;;;;13.88;100.00;100625.31;5382948;27;20094;-89
2023/09/19 00:11:53;;;;;;;13.90;4.07;;;;;;;13.83;100.00;100620.22;5377164;27;20126;-91
2023/09/19 00:14:25;;;;;;;13.52;4.43;;;;;;;13.78;100.00;100622.97;5378773;27;20026;-90
2023/09/19 00:16:57;;;;;;;24.27;5.33;;;;;;;13.74;100.00;100637.06;5377907;27;20027;-90
2023/09/19 00:19:29;;;;;;;17.65;4.07;;;;;;;13.70;100.00;100634.56;5375020;27;20075;-90
2023/09/19 00:22:02;;;;;;;13.07;3.78;;;;;;;13.75;100.00;100638.78;5357491;27;20080;-91
2023/09/19 00:24:34;;;;;;;13.00;4.38;;;;;;;13.75;100.00;100636.16;5377142;27;20034;-91
2023/09/19 00:27:05;;;;;;;11.97;4.63;;;;;;;13.74;100.00;100647.53;5382778;27;20041;-92
2023/09/19 00:29:37;;;;;;;14.53;3.87;;;;;;;13.70;100.00;100643.28;5393848;27;20273;-90
2023/09/19 00:32:08;;;;;;;12.93;3.50;;;;;;;13.66;100.00;100652.13;5394218;27;20082;-90
2023/09/19 00:34:40;;;;;;;15.33;3.83;;;;;;;13.68;100.00;100653.81;5389405;27;20090;-91
2023/09/19 00:37:11;;;;;;;21.83;5.07;;;;;;;13.60;100.00;100662.75;5388209;27;20059;-88
2023/09/19 00:39:42;;;;;;;12.30;3.57;;;;;;;13.73;100.00;100660.66;5388852;27;20432;-90
2023/09/19 00:42:20;;;;;;;10.17;2.77;;;;;;;13.67;100.00;100656.47;5380131;27;20070;-91
2023/09/19 00:44:52;;;;;;;11.02;3.47;;;;;;;13.60;100.00;100662.75;5381089;27;20038;-87
2023/09/19 00:47:25;;;;;;;15.77;4.00;;;;;;;13.57;100.00;100657.59;5380879;27;20018;-88
2023/09/19 00:49:57;;;;;;;12.82;3.92;;;;;;;13.55;100.00;100668.13;5380245;27;20031;-88
2023/09/19 00:52:28;;;;;;;10.88;3.25;;;;;;;13.53;100.00;100672.56;5379255;27;20050;-86
2023/09/19 00:55:00;;;;;;;13.10;4.17;;;;;;;13.47;100.00;100680.56;5380095;27;20023;-92
2023/09/19 00:57:32;;;;;;;9.77;3.47;;;;;;;13.42;100.00;100683.31;5387311;27;20508;-89
2023/09/19 01:00:10;;;;;;;15.48;4.45;;;;;;;13.43;100.00;100682.41;5395696;27;20059;-87
2023/09/19 01:02:46;;;;;;;13.05;3.75;;;;;;;13.37;100.00;100684.34;5388009;27;20113;-92
2023/09/19 01:05:18;;;;;;;17.45;5.80;;;;;;;13.43;100.00;100689.41;5379635;27;20061;-92
2023/09/19 01:07:49;;;;;;;15.30;3.80;;;;;;;13.42;100.00;100685.91;5380969;27;20026;-92
2023/09/19 01:10:22;;;;;;;14.40;4.03;;;;;;;13.41;100.00;100694.69;5378705;27;20031;-90
2023/09/19 01:13:14;;;;;;;12.02;4.50;;;;;;;13.37;100.00;100694.81;5379555;27;20031;-89
2023/09/19 01:15:54;;;;;;;16.35;5.38;;;;;;;13.40;100.00;100692.13;5360303;27;20035;-89
2023/09/19 01:18:35;;;;;;;14.32;3.78;;;;;;;13.41;100.00;100694.69;5380164;27;20093;-87
2023/09/19 01:21:28;;;;;;;12.85;4.03;;;;;;;13.38;100.00;100718.34;5360892;27;20035;-90
2023/09/19 01:24:35;;;;;;;14.60;3.70;;;;;;;13.35;100.00;100702.72;5378928;27;20030;-88
2023/09/19 01:27:25;;;;;;;12.95;4.25;;;;;;;13.40;100.00;100705.22;5377130;27;20053;-92
2023/09/19 01:30:11;;;;;;;17.85;4.70;;;;;;;13.32;100.00;100715.84;5387270;27;20095;-87
2023/09/19 01:32:43;;;;;;;11.15;3.72;;;;;;;13.35;100.00;100712.28;5380146;27;20137;-87
2023/09/19 01:35:14;;;;;;;12.13;3.30;;;;;;;13.30;100.00;100715.88;5377294;27;20030;-91
2023/09/19 01:37:45;;;;;;;12.10;3.97;;;;;;;13.31;100.00;100721.97;5358814;27;20268;-90
2023/09/19 01:40:20;;;;;;;15.03;4.47;;;;;;;13.27;100.00;100722.94;5359860;27;20030;-87
2023/09/19 01:43:15;;;;;;;17.77;4.72;;;;;;;13.30;99.57;100723.72;5386550;27;20106;-90
2023/09/19 01:46:04;;;;;;;11.88;3.97;;;;;;;13.30;98.88;100728.97;5383332;27;20051;-87
2023/09/19 01:48:42;;;;;;;13.57;3.55;;;;;;;13.20;98.67;100724.88;5383322;27;20063;-83
2023/09/19 01:51:21;;;;;;;19.45;4.35;;;;;;;13.20;99.23;100729.22;5391953;27;20022;-81
2023/09/19 01:54:03;;;;;;;11.90;3.50;;;;;;;13.18;98.52;100723.16;5395019;27;20027;-84
2023/09/19 01:57:01;;;;;;;12.65;4.32;;;;;;;13.20;97.94;100729.22;5379332;27;20027;-87
2023/09/19 01:59:37;;;;;;;13.60;4.07;;;;;;;13.19;97.38;100727.53;5368437;27;20075;-87
2023/09/19 02:02:10;;;;;;;15.82;4.05;;;;;;;13.17;97.18;100721.44;5356582;27;20091;-86
2023/09/19 02:04:41;;;;;;;12.32;3.88;;;;;;;13.15;96.74;100721.47;5367663;27;20039;-90
2023/09/19 02:07:16;;;;;;;14.97;3.17;;;;;;;13.17;96.24;100721.44;5377072;27;20038;-89
2023/09/19 02:09:48;;;;;;;15.07;4.45;;;;;;;13.14;96.32;100722.41;5377566;27;20050;-93
2023/09/19 02:12:19;;;;;;;16.97;3.77;;;;;;;13.10;96.33;100721.59;5378669;27;20034;-93
2023/09/19 02:14:50;;;;;;;15.23;4.03;;;;;;;13.05;96.49;100717.38;5384265;27;20015;-92
2023/09/19 02:17:25;;;;;;;12.03;3.20;;;;;;;13.08;95.46;100722.53;5376932;27;20072;-92
2023/09/19 02:19:58;;;;;;;19.83;3.85;;;;;;;13.08;94.87;100733.00;5356724;27;20550;-88
2023/09/19 02:22:30;;;;;;;16.08;3.42;;;;;;;13.06;95.21;100719.97;5380108;27;20027;-92
2023/09/19 02:25:01;;;;;;;11.67;3.50;;;;;;;12.97;95.31;100730.63;5381184;27;20114;-89
2023/09/19 02:27:33;;;;;;;15.97;4.80;;;;;;;12.97;95.03;100727.16;5370497;27;20011;-86
2023/09/19 02:30:06;;;;;;;18.37;4.30;;;;;;;12.93;95.28;100729.00;5395121;27;20042;-88
2023/09/19 02:32:38;;;;;;;12.15;3.95;;;;;;;12.85;95.35;100739.63;5378949;27;20065;-92
2023/09/19 02:35:10;;;;;;;10.68;2.75;;;;;;;12.86;94.70;100733.50;5377604;27;20038;-89
2023/09/19 02:37:42;;;;;;;10.43;3.50;;;;;;;12.85;94.43;100737.03;5377815;27;20057;-92
2023/09/19 02:40:19;;;;;;;9.90;3.07;;;;;;;12.77;95.00;100734.56;5378312;27;20053;-92
2023/09/19 02:42:55;;;;;;;12.63;3.95;;;;;;;12.74;94.73;100741.63;5377343;27;20451;-92
2023/09/19 02:45:27;;;;;;;11.25;3.55;;;;;;;12.74;94.09;100739.88;5378898;27;20027;-91
2023/09/19 02:47:59;;;;;;;14.05;3.75;;;;;;;12.71;94.03;100742.56;5389276;27;20102;-92
2023/09/19 02:50:30;;;;;;;13.37;4.07;;;;;;;12.67;93.60;100733.06;5355645;27;20030;-92
2023/09/19 02:53:02;;;;;;;15.23;3.40;;;;;;;12.66;93.66;100735.72;5377170;27;20030;-91
2023/09/19 02:55:33;;;;;;;14.63;5.47;;;;;;;12.62;92.94;100736.66;5376189;27;20462;-90
2023/09/19 02:58:07;;;;;;;9.70;3.67;;;;;;;12.67;92.72;100743.53;5377147;27;20370;-92
2023/09/19 03:00:39;;;;;;;13.70;4.13;;;;;;;12.59;93.14;100735.00;5376585;27;20015;-92
2023/09/19 03:03:11;;;;;;;16.87;4.50;;;;;;;12.63;92.82;100744.47;5377227;27;20049;-86
2023/09/19 03:05:47;;;;;;;10.98;3.78;;;;;;;12.65;92.12;100753.16;5378661;27;20073;-88
2023/09/19 03:08:18;;;;;;;15.05;3.72;;;;;;;12.63;92.15;100743.63;5378922;27;20083;-92
2023/09/19 03:10:50;;;;;;;17.13;4.30;;;;;;;12.57;92.70;100749.84;5384219;27;20038;-86
2023/09/19 03:13:21;;;;;;;10.30;3.13;;;;;;;12.57;92.20;100740.25;5393346;27;20014;-88
2023/09/19 03:15:56;;;;;;;10.17;3.90;;;;;;;12.56;92.02;100745.53;5394608;27;20094;-89
2023/09/19 03:18:27;;;;;;;10.50;4.03;;;;;;;12.56;92.10;100750.75;5376149;27;20025;-91
2023/09/19 03:21:01;;;;;;;11.97;2.97;;;;;;;12.56;91.84;100749.00;5386169;27;20026;-86
2023/09/19 03:23:33;;;;;;;12.77;3.55;;;;;;;12.54;92.07;100747.28;5387544;27;20489;-89
2023/09/19 03:26:05;;;;;;;10.83;3.63;;;;;;;12.54;92.14;100748.16;5383955;27;20033;-90
2023/09/19 03:28:37;;;;;;;10.55;3.15;;;;;;;12.58;91.77;100743.72;5377075;27;20027;-89
2023/09/19 03:31:09;;;;;;;11.75;3.85;;;;;;;12.57;92.11;100745.50;5375975;27;20066;-90
2023/09/19 03:33:40;;;;;;;8.93;3.38;;;;;;;12.49;92.68;100746.53;5377096;27;20087;-90
2023/09/19 03:36:13;;;;;;;10.13;3.13;;;;;;;12.48;92.66;100740.47;5376758;27;20037;-90
2023/09/19 03:38:44;;;;;;;11.32;3.20;;;;;;;12.46;93.02;100734.41;5377044;27;20537;-91
2023/09/19 03:41:17;;;;;;;8.13;2.73;;;;;;;12.52;92.77;100738.63;5376330;27;20035;-91
2023/09/19 03:43:49;;;;;;;;;;;;;;;12.53;92.73;100742.97;5375867;27;20157;-90
2023/09/19 03:46:20;;;;;;;15.68;4.93;;;;;;;12.58;92.66;100746.34;5387048;27;19926;-90
2023/09/19 03:48:51;;;;;;;14.00;3.63;;;;;;;12.59;92.66;100737.63;5379771;27;20027;-90
2023/09/19 03:51:23;;;;;;;13.47;3.40;;;;;;;12.65;92.39;100739.22;5377108;27;20045;-92
2023/09/19 03:53:54;;;;;;;12.37;3.60;;;;;;;12.67;92.60;100729.56;5375054;27;20027;-90
2023/09/19 03:56:26;;;;;;;11.37;3.93;;;;;;;12.65;93.05;100736.59;5374644;27;20034;-89
2023/09/19 03:58:57;;;;;;;9.47;3.03;;;;;;;12.64;93.40;100722.69;5374434;27;20508;-89
2023/09/19 04:01:31;;;;;;;13.27;5.17;;;;;;;12.61;93.88;100733.22;5376850;27;20030;-86
2023/09/19 04:04:14;;;;;;;11.60;3.65;;;;;;;12.67;93.92;100738.31;5382405;27;20428;-89
2023/09/19 04:06:45;;;;;;;14.13;3.80;;;;;;;12.67;94.02;100747.88;5392410;27;20011;-87
2023/09/19 04:09:17;;;;;;;13.97;4.53;;;;;;;12.68;94.49;100737.38;5390644;27;20046;-89
2023/09/19 04:11:49;;;;;;;15.03;3.80;;;;;;;12.69;94.53;100728.66;5394072;27;20027;-88
2023/09/19 04:14:21;;;;;;;11.10;3.38;;;;;;;12.62;95.06;100742.75;5395947;27;20041;-87
2023/09/19 04:16:53;;;;;;;14.87;3.63;;;;;;;12.69;94.77;100731.28;5396454;27;20023;-87
2023/09/19 04:19:24;;;;;;;15.20;4.65;;;;;;;12.70;95.12;100735.63;5396776;27;20037;-81
2023/09/19 04:21:56;;;;;;;11.93;4.13;;;;;;;12.66;95.27;100739.19;5396636;27;20061;-84
2023/09/19 04:24:27;;;;;;;11.00;3.73;;;;;;;12.70;95.45;100748.69;5397656;27;20018;-82
2023/09/19 04:26:59;;;;;;;13.30;3.60;;;;;;;12.63;95.93;100746.25;5387074;27;20397;-86
2023/09/19 04:29:30;;;;;;;14.43;3.38;;;;;;;12.63;96.57;100765.41;5379924;27;20043;-86
2023/09/19 04:32:05;;;;;;;15.67;3.50;;;;;;;12.56;96.88;100762.06;5379735;27;20027;-88
2023/09/19 04:34:38;;;;;;;9.85;3.33;;;;;;;12.54;97.40;100774.31;5393074;27;20507;-86
2023/09/19 04:37:10;;;;;;;12.52;4.47;;;;;;;12.59;97.37;100775.06;5388871;27;20023;-86
2023/09/19 04:39:42;;;;;;;;;;;;;;;12.66;96.80;100783.66;5394991;27;20086;-87
2023/09/19 04:42:14;;;;;;;15.20;3.83;;;;;;;12.69;97.17;100778.34;5388064;27;19915;-86
2023/09/19 04:44:49;;;;;;;13.18;3.38;;;;;;;12.73;97.06;100795.69;5366086;27;20038;-89
2023/09/19 04:47:22;;;;;;;14.05;4.20;;;;;;;12.80;96.73;100800.78;5365170;27;20385;-89
2023/09/19 04:49:53;;;;;;;9.73;3.42;;;;;;;12.85;96.68;100791.13;5360606;27;20180;-88
2023/09/19 04:52:25;;;;;;;15.50;4.27;;;;;;;12.85;96.74;100804.19;5368652;27;20046;-87
2023/09/19 04:54:57;;;;;;;14.37;3.40;;;;;;;12.84;96.57;100811.16;5378769;27;20031;-86
2023/09/19 04:57:28;;;;;;;16.33;4.97;;;;;;;12.86;96.65;100808.50;5378238;27;20033;-84
2023/09/19 04:59:59;;;;;;;18.10;4.47;;;;;;;12.85;96.56;100809.44;5378840;27;20275;-88
2023/09/19 05:02:31;;;;;;;16.20;3.83;;;;;;;12.85;96.87;100814.66;5378607;27;20167;-87
2023/09/19 05:05:04;;;;;;;11.73;3.37;;;;;;;12.85;96.66;100815.50;5377588;27;20113;-86
2023/09/19 05:07:36;;;;;;;14.40;4.10;;;;;;;12.84;96.57;100812.91;5378938;27;20318;-86
2023/09/19 05:10:08;;;;;;;14.10;4.20;;;;;;;12.88;96.42;100811.94;5378525;27;20462;-87
2023/09/19 05:12:40;;;;;;;16.42;4.30;;;;;;;12.91;96.67;100820.63;5377511;27;20027;-87
2023/09/19 05:15:12;;;;;;;13.00;3.78;;;;;;;12.86;96.91;100809.34;5376657;27;20381;-85
2023/09/19 05:17:51;;;;;;;11.83;3.37;;;;;;;12.80;97.58;100814.75;5378713;27;20130;-85
2023/09/19 05:20:37;;;;;;;17.27;3.97;;;;;;;12.76;97.97;100815.69;5378789;27;20097;-85
2023/09/19 05:23:11;;;;;;;16.10;3.80;;;;;;;12.75;98.42;100817.47;5376584;27;20065;-85
2023/09/19 05:25:43;;;;;;;11.82;2.90;;;;;;;12.81;98.30;100820.84;5377451;27;20473;-87
2023/09/19 05:28:14;;;;;;;15.17;3.83;;;;;;;12.82;98.58;100819.94;5377076;27;20038;-85
2023/09/19 05:30:47;;;;;;;10.97;4.10;;;;;;;12.82;98.52;100833.88;5375986;27;20027;-86
2023/09/19 05:33:19;;;;;;;;;;;;;;;12.95;97.93;100824.00;5378801;27;20270;-85
2023/09/19 05:35:50;;;;;;;9.90;3.78;;;;;;;12.91;98.65;100825.84;5377253;27;20001;-87
2023/09/19 05:38:22;;;;;;;15.20;4.67;;;;;;;12.93;98.51;100831.91;5378885;27;20031;-87
2023/09/19 05:40:54;;;;;;;15.95;4.50;;;;;;;12.92;98.85;100819.69;5360378;27;20023;-86
2023/09/19 05:43:25;;;;;;;10.93;3.40;;;;;;;12.94;98.94;100835.38;5377187;27;20524;-88
2023/09/19 05:45:59;;;;;;;13.23;3.70;;;;;;;13.00;98.60;100834.38;5384580;27;20011;-88
2023/09/19 05:48:31;;;;;;;13.75;4.13;;;;;;;12.95;98.76;100819.63;5376759;27;20031;-89
2023/09/19 05:51:02;;;;;;;15.97;4.27;;;;;;;13.02;98.73;100824.72;5377847;27;20541;-84
2023/09/19 05:53:34;;;;;;;13.07;3.93;;;;;;;13.01;99.04;100826.50;5376718;27;20122;-85
2023/09/19 05:56:05;;;;;;;14.47;3.57;;;;;;;13.03;98.91;100814.22;5378721;27;20058;-88
2023/09/19 05:58:37;;;;;;;16.90;4.87;;;;;;;13.04;99.01;100815.97;5360177;27;20046;-84
2023/09/19 06:01:09;;;;;;;12.57;3.83;;;;;;;13.04;99.11;100812.47;5385306;27;20114;-84
2023/09/19 06:03:40;;;;;;;12.13;3.65;;;;;;;13.00;99.51;100816.06;5391630;27;20034;-85
2023/09/19 06:06:12;;;;;;;10.57;4.93;;;;;;;13.07;99.28;100828.09;5365417;27;20027;-87
2023/09/19 06:08:44;;;;;;;10.10;3.63;;;;;;;13.08;99.60;100819.38;5378552;27;20061;-83
2023/09/19 06:11:15;;;;;;;16.67;4.78;;;;;;;13.07;99.95;100817.63;5378100;27;20023;-86
2023/09/19 06:13:47;;;;;;;15.87;4.50;;;;;;;13.08;99.93;100828.06;5376255;27;20076;-87
2023/09/19 06:16:19;;;;;;;15.97;4.67;;;;;;;13.12;99.73;100815.75;5340883;27;20027;-86
2023/09/19 06:18:52;;;;;;;10.68;3.78;;;;;;;13.12;100.00;100829.72;5376212;27;20463;-86
2023/09/19 06:21:24;;;;;;;12.23;4.63;;;;;;;13.14;100.00;100829.69;5358170;27;20087;-83
2023/09/19 06:23:55;;;;;;;11.80;4.27;;;;;;;13.13;100.00;100838.44;5378329;27;20027;-84
2023/09/19 06:26:27;;;;;;;9.23;3.50;;;;;;;13.13;100.00;100833.19;5381329;27;20056;-84
2023/09/19 06:28:59;;;;;;;13.57;4.40;;;;;;;13.14;100.00;100833.16;5379189;27;20047;-82
2023/09/19 06:31:31;;;;;;;11.88;4.07;;;;;;;13.18;100.00;100836.56;5383406;27;20022;-81
2023/09/19 06:34:03;;;;;;;12.67;4.03;;;;;;;13.22;100.00;100853.94;5375493;27;20044;-84
2023/09/19 06:36:34;;;;;;;12.73;4.18;;;;;;;13.23;100.00;100841.69;5394181;27;20059;-85
2023/09/19 06:39:06;;;;;;;17.00;4.73;;;;;;;13.27;100.00;100844.22;5391944;27;20094;-83
2023/09/19 06:41:39;;;;;;;14.50;4.03;;;;;;;13.30;100.00;100861.63;5342719;27;20148;-90
2023/09/19 06:44:10;;;;;;;15.40;4.82;;;;;;;13.31;100.00;100845.88;5355201;27;20055;-86
2023/09/19 06:46:44;;;;;;;14.27;4.43;;;;;;;13.33;100.00;100845.88;5354775;27;20037;-88
2023/09/19 06:49:15;;;;;;;14.13;4.13;;;;;;;13.40;99.91;100857.91;5355292;27;20152;-89
2023/09/19 06:51:47;;;;;;;13.27;4.13;;;;;;;13.40;99.94;100857.91;5356492;27;20054;-85
2023/09/19 06:54:18;;;;;;;15.20;4.50;;;;;;;13.44;100.00;100856.97;5353416;27;20027;-85
2023/09/19 06:56:49;;;;;;;12.13;3.80;;;;;;;13.47;100.00;100869.09;5354828;27;20030;-85
2023/09/19 06:59:21;;;;;;;14.27;4.83;;;;;;;13.53;99.94;100852.41;5350696;27;20037;-84
2023/09/19 07:01:52;;;;;;;12.90;3.63;;;;;;;13.60;100.00;100859.19;5355771;27;20027;-84
2023/09/19 07:04:24;;;;;;;18.33;4.70;;;;;;;13.67;99.47;100855.56;5356221;27;20035;-87
2023/09/19 07:06:56;;;;;;;15.32;4.13;;;;;;;13.74;98.35;100858.88;5356931;27;20059;-84
2023/09/19 07:09:27;;;;;;;14.17;4.27;;;;;;;13.76;99.14;100852.69;5352808;27;20027;-84
2023/09/19 07:11:59;;;;;;;14.03;4.20;;;;;;;13.84;98.68;100853.34;5354848;27;20102;-84
2023/09/19 07:14:30;;;;;;;15.57;4.70;;;;;;;13.88;97.80;100854.16;5354528;27;20019;-89
2023/09/19 07:17:03;;;;;;;15.87;4.27;;;;;;;13.96;97.62;100867.91;5354572;27;20027;-86
2023/09/19 07:19:35;;;;;;;18.02;5.07;;;;;;;14.03;97.38;100866.00;5354330;27;20027;-88
2023/09/19 07:22:07;;;;;;;11.93;5.00;;;;;;;14.08;97.11;100864.09;5352748;27;20084;-87
2023/09/19 07:24:39;;;;;;;16.00;4.35;;;;;;;14.11;96.77;100871.03;5354346;27;20043;-86
2023/09/19 07:27:10;;;;;;;14.97;4.03;;;;;;;14.14;95.92;100865.72;5353255;27;20023;-85
2023/09/19 07:29:42;;;;;;;13.77;4.27;;;;;;;14.13;96.67;100864.00;5351600;27;20466;-84
2023/09/19 07:32:13;;;;;;;18.77;4.77;;;;;;;14.16;96.82;100867.38;5353200;27;20370;-87
2023/09/19 07:34:45;;;;;;;13.35;3.42;;;;;;;14.23;95.96;100854.97;5351805;27;20099;-85
2023/09/19 07:37:16;;;;;;;13.73;4.57;;;;;;;14.30;95.38;100853.91;5353096;27;20396;-88
2023/09/19 07:39:48;;;;;;;15.63;4.20;;;;;;;14.36;94.31;100858.13;5354180;27;20458;-85
2023/09/19 07:42:19;;;;;;;16.50;4.80;;;;;;;14.42;94.85;100873.69;5357214;27;20105;-85
2023/09/19 07:44:51;;;;;;;11.87;3.77;;;;;;;14.51;94.84;100862.97;5375864;27;20112;-83
2023/09/19 07:47:22;;;;;;;14.63;4.53;;;;;;;14.70;93.66;100872.94;5374892;27;20094;-86
2023/09/19 07:49:55;;;;;;;18.27;4.40;;;;;;;14.76;93.38;100870.16;5372823;27;20074;-82
2023/09/19 07:52:27;;;;;;;16.00;4.97;;;;;;;14.86;92.21;100868.13;5374277;27;20027;-87
2023/09/19 07:55:01;;;;;;;12.82;4.13;;;;;;;14.85;92.10;100875.16;5375772;27;20027;-88
2023/09/19 07:57:34;;;;;;;18.58;5.20;;;;;;;14.99;92.76;100874.75;5374874;27;20022;-85
2023/09/19 08:00:07;;;;;;;16.63;3.67;;;;;;;15.05;91.39;100871.06;5373681;27;20019;-85
2023/09/19 08:02:42;;;;;;;13.43;4.18;;;;;;;15.10;90.35;100877.91;5374167;27;20030;-86
2023/09/19 08:05:17;;;;;;;11.48;4.57;;;;;;;15.22;91.21;100879.28;5381003;27;20083;-85
2023/09/19 08:07:48;;;;;;;13.40;4.22;;;;;;;15.24;90.38;100874.84;5373681;27;20411;-85
2023/09/19 08:10:20;;;;;;;13.67;3.87;;;;;;;15.46;89.96;100885.56;5373635;27;20031;-88
2023/09/19 08:12:56;;;;;;;15.30;4.88;;;;;;;15.59;89.15;100893.91;5374262;27;20376;-85
2023/09/19 08:15:27;;;;;;;16.42;4.40;;;;;;;15.62;87.87;100888.56;5372813;27;20035;-90
2023/09/19 08:17:59;;;;;;;14.43;4.70;;;;;;;15.63;88.39;100892.91;5372686;27;20526;-84
2023/09/19 08:20:31;;;;;;;15.10;4.67;;;;;;;15.69;87.81;100882.19;5371838;27;20393;-83
2023/09/19 08:23:03;;;;;;;20.38;4.82;;;;;;;15.75;86.99;100880.28;5375708;27;20094;-87
2023/09/19 08:25:35;;;;;;;14.80;4.43;;;;;;;15.74;86.75;100883.81;5374804;27;20542;-84
2023/09/19 08:28:08;;;;;;;17.07;4.30;;;;;;;15.71;87.35;100887.38;5374806;27;20030;-85
2023/09/19 08:30:40;;;;;;;10.50;3.40;;;;;;;15.71;86.98;100889.16;5383800;27;20019;-85
2023/09/19 08:33:14;;;;;;;13.82;3.78;;;;;;;15.91;86.72;100881.53;5387903;27;20035;-82
2023/09/19 08:35:46;;;;;;;13.02;4.35;;;;;;;16.14;86.54;100882.50;5388929;27;20027;-84
2023/09/19 08:38:17;;;;;;;16.60;4.20;;;;;;;16.06;85.04;100889.81;5386819;27;20063;-85
2023/09/19 08:40:49;;;;;;;15.90;3.90;;;;;;;16.01;85.44;100890.81;5385903;27;20062;-85
2023/09/19 08:43:21;;;;;;;11.98;3.67;;;;;;;16.23;85.10;100884.81;5385833;27;20039;-84
2023/09/19 08:46:05;;;;;;;21.33;5.28;;;;;;;16.26;83.75;100883.84;5383799;27;20034;-85
2023/09/19 08:48:39;;;;;;;14.82;3.83;;;;;;;16.19;83.63;100885.84;5382103;27;20057;-83
2023/09/19 08:51:18;;;;;;;14.88;4.40;;;;;;;16.41;84.02;100867.53;5389422;27;20035;-82
2023/09/19 08:54:09;;;;;;;12.73;4.43;;;;;;;16.40;82.74;100890.34;5391148;27;20015;-86
2023/09/19 08:56:43;;;;;;;13.48;3.92;;;;;;;16.70;83.84;100876.16;5391568;27;20019;-84
2023/09/19 08:59:15;;;;;;;12.57;3.30;;;;;;;17.17;81.22;100885.81;5378962;27;20061;-86
2023/09/19 09:01:47;;;;;;;15.23;4.78;;;;;;;17.24;79.83;100882.03;5376138;27;20031;-85
2023/09/19 09:04:20;;;;;;;11.98;3.58;;;;;;;17.57;78.06;100885.09;5381040;27;20035;-87
2023/09/19 09:06:53;;;;;;;13.32;3.67;;;;;;;17.40;77.08;100893.66;5377992;27;20030;-87
2023/09/19 09:09:24;;;;;;;13.02;4.13;;;;;;;17.12;78.07;100873.69;5377990;27;20033;-89
2023/09/19 09:11:58;;;;;;;13.67;4.50;;;;;;;17.44;76.49;100883.88;5378611;27;20129;-87
2023/09/19 09:14:30;;;;;;;12.13;4.05;;;;;;;17.46;76.75;100874.13;5376330;27;20023;-86
2023/09/19 09:17:02;;;;;;;11.30;4.45;;;;;;;17.82;74.01;100895.50;5378122;27;20377;-86
2023/09/19 09:19:34;;;;;;;10.38;4.18;;;;;;;17.82;74.39;100897.28;5376093;27;20026;-85
2023/09/19 09:22:10;;;;;;;10.50;3.60;;;;;;;18.21;73.55;100888.66;5377850;27;20041;-87
2023/09/19 09:24:58;;;;;;;16.42;5.00;;;;;;;18.01;72.58;100884.22;5377926;27;20380;-86
2023/09/19 09:27:32;;;;;;;13.65;4.82;;;;;;;18.50;72.77;100892.66;5376755;27;20049;-85
2023/09/19 09:30:04;;;;;;;14.43;4.18;;;;;;;18.54;72.19;100893.38;5333956;28;20024;-87
2023/09/19 09:32:36;;;;;;;11.75;4.72;;;;;;;18.64;71.27;100881.47;5349293;27;20035;-90
2023/09/19 09:35:11;;;;;;;;;;;;;;;19.40;69.08;100888.56;5331325;28;20051;-85
2023/09/19 09:37:43;;;;;;;11.32;4.07;;;;;;;19.25;67.27;100898.94;5333475;28;19969;-85
2023/09/19 09:42:49;;;;;;;16.10;4.53;;;;;;;19.58;66.08;100873.63;5342276;27;19919;-86
2023/09/19 09:45:56;;;;;;;11.02;3.50;;;;;;;19.34;65.17;100875.69;5354908;27;20035;-87
2023/09/19 09:48:31;;;;;;;13.73;4.15;;;;;;;19.84;64.22;100867.91;5352889;27;20042;-90
2023/09/19 09:51:03;;;;;;;10.45;3.70;;;;;;;19.54;62.58;100872.91;5363892;27;20019;-88
2023/09/19 09:53:36;;;;;;;10.93;3.50;;;;;;;19.35;63.71;100859.72;5359669;27;20031;-86
2023/09/19 09:56:13;;;;;;;12.02;4.05;;;;;;;19.68;63.21;100877.53;5356493;27;20039;-86
2023/09/19 09:58:58;;;;;;;10.60;3.47;;;;;;;20.35;59.10;100875.91;5353182;27;20120;-89
2023/09/19 10:01:46;;;;;;;10.98;3.22;;;;;;;20.31;59.86;100876.16;5336699;27;20541;-89
2023/09/19 10:04:44;;;;;;;13.25;4.40;;;;;;;19.77;61.97;100869.16;5355745;27;20035;-87
2023/09/19 10:07:32;;;;;;;15.30;3.97;;;;;;;20.28;60.73;100871.00;5339636;27;20034;-83
2023/09/19 10:10:15;;;;;;;11.07;3.60;;;;;;;20.75;59.85;100876.47;5356044;27;20048;-83
2023/09/19 10:12:48;;;;;;;10.88;3.63;;;;;;;19.73;61.01;100877.28;5364891;27;20121;-86
2023/09/19 10:15:24;;;;;;;14.95;3.80;;;;;;;19.85;62.69;100871.41;5363852;27;20142;-89
2023/09/19 10:17:56;;;;;;;8.57;3.78;;;;;;;20.38;58.65;100869.59;5367710;27;20062;-83
2023/09/19 10:20:41;;;;;;;11.50;4.60;;;;;;;21.38;56.99;100895.13;5339232;27;20366;-82
2023/09/19 10:23:13;;;;;;;11.88;3.30;;;;;;;21.73;54.30;100871.91;5337268;27;20031;-85
2023/09/19 10:25:46;;;;;;;11.52;3.60;;;;;;;21.72;54.32;100862.28;5358030;27;20054;-85
2023/09/19 10:28:22;;;;;;;10.15;3.88;;;;;;;22.16;51.87;100856.09;5361293;27;20029;-86
2023/09/19 10:30:54;;;;;;;13.68;4.32;;;;;;;22.18;51.69;100871.94;5375742;27;20035;-86
2023/09/19 10:33:26;;;;;;;9.48;3.30;;;;;;;22.46;53.06;100864.97;5373785;27;20082;-87
2023/09/19 10:36:00;;;;;;;12.63;3.90;;;;;;;22.63;53.76;100867.44;5376431;27;20047;-83
2023/09/19 10:38:33;;;;;;;12.38;3.65;;;;;;;22.12;50.53;100869.66;5375804;27;20264;-85
2023/09/19 10:41:05;;;;;;;11.85;4.10;;;;;;;22.44;51.29;100862.41;5375398;27;20098;-83
2023/09/19 10:43:39;;;;;;;11.20;3.35;;;;;;;22.38;49.59;100870.78;5374441;27;20525;-84
2023/09/19 10:46:12;;;;;;;10.57;3.47;;;;;;;22.35;49.44;100877.13;5376801;27;20033;-84
2023/09/19 10:48:44;;;;;;;10.63;3.85;;;;;;;22.33;49.84;100870.19;5382391;27;20051;-88
2023/09/19 10:51:19;;;;;;;9.55;3.42;;;;;;;23.06;49.42;100866.56;5376392;27;20033;-86
2023/09/19 10:54:05;;;;;;;10.80;3.80;;;;;;;21.95;50.57;100874.19;5375298;27;20037;-88
2023/09/19 10:56:38;;;;;;;13.93;3.95;;;;;;;21.41;52.81;100852.53;5376865;27;20029;-86
2023/09/19 10:59:12;;;;;;;11.70;3.75;;;;;;;21.49;53.44;100851.19;5380097;27;20098;-85
2023/09/19 11:01:57;;;;;;;12.25;4.00;;;;;;;21.42;52.83;100849.78;5386566;27;20030;-85
2023/09/19 11:04:38;;;;;;;11.68;3.25;;;;;;;22.57;51.22;100847.44;5382349;27;20031;-83
2023/09/19 11:07:15;;;;;;;8.68;3.40;;;;;;;22.80;50.06;100847.81;5375443;27;20477;-84
2023/09/19 11:09:53;;;;;;;9.70;3.83;;;;;;;22.91;48.83;100829.38;5375111;27;20414;-85
2023/09/19 11:12:31;;;;;;;9.93;3.92;;;;;;;23.12;47.01;100835.13;5382739;27;20033;-86
2023/09/19 11:15:13;;;;;;;8.30;2.95;;;;;;;22.67;49.21;100813.19;5382410;27;20039;-85
2023/09/19 11:17:48;;;;;;;14.63;3.92;;;;;;;22.62;47.93;100817.94;5385210;27;20082;-84
2023/09/19 11:20:25;;;;;;;12.13;3.47;;;;;;;22.97;47.28;100822.78;5375436;27;20035;-87
2023/09/19 11:23:17;;;;;;;7.72;3.03;;;;;;;23.49;46.10;100831.88;5375755;27;20026;-84
2023/09/19 11:25:49;;;;;;;9.20;2.90;;;;;;;23.67;44.28;100830.63;5375387;27;20057;-84
2023/09/19 11:28:25;;;;;;;6.40;2.60;;;;;;;23.10;44.33;100834.41;5376994;27;20414;-86
2023/09/19 11:30:58;;;;;;;9.65;2.95;;;;;;;22.86;46.46;100804.91;5365127;27;20030;-85
2023/09/19 11:33:33;;;;;;;9.85;3.25;;;;;;;23.53;44.79;100804.09;5380023;27;20538;-85
2023/09/19 11:36:15;;;;;;;8.73;2.92;;;;;;;24.21;42.55;100792.38;5387479;27;20038;-85
2023/09/19 11:38:52;;;;;;;;;;;;;;;24.71;43.07;100802.22;5392237;27;20067;-85
2023/09/19 11:41:27;;;;;;;5.13;2.50;;;;;;;24.84;42.40;100788.84;5381896;27;19911;-84
2023/09/19 11:44:00;;;;;;;8.57;2.92;;;;;;;24.25;41.23;100787.69;5379036;27;20054;-89
2023/09/19 11:46:52;;;;;;;8.88;2.28;;;;;;;24.72;41.44;100769.28;5366099;27;20100;-86
2023/09/19 11:49:30;;;;;;;8.43;3.17;;;;;;;24.70;41.96;100772.06;5377923;27;20349;-88
2023/09/19 11:52:05;;;;;;;6.95;2.58;;;;;;;25.10;39.95;100778.94;5375815;27;20055;-85